createdAt,value
2023-04-04T00:00:51.504Z,99913.28
2023-04-04T00:01:53.668Z,99904.88
2023-04-04T00:02:55.700Z,99902.44
2023-04-04T00:03:57.746Z,99903.59
2023-04-04T00:04:59.694Z,99910.53
2023-04-04T00:06:01.524Z,99903.44
2023-04-04T00:07:03.692Z,99906.50
2023-04-04T00:08:05.760Z,99907.47
2023-04-04T00:09:08.167Z,99917.81
2023-04-04T00:10:10.428Z,99910.69
2023-04-04T00:11:13.023Z,99905.22
2023-04-04T00:12:15.398Z,99918.91
2023-04-04T00:13:17.656Z,99914.41
2023-04-04T00:14:19.514Z,99918.09
2023-04-04T00:15:22.119Z,99917.66
2023-04-04T00:16:24.266Z,99922.31
2023-04-04T00:17:27.251Z,99919.69
2023-04-04T00:18:29.083Z,99924.25
2023-04-04T00:19:31.135Z,99924.06
2023-04-04T00:20:33.062Z,99926.16
2023-04-04T00:21:34.898Z,99923.41
2023-04-04T00:22:37.078Z,99928.88
2023-04-04T00:23:38.962Z,99928.03
2023-04-04T00:24:40.803Z,99928.69
2023-04-04T00:25:42.733Z,99933.37
2023-04-04T00:26:44.594Z,99928.38
2023-04-04T00:27:48.283Z,99924.84
2023-04-04T00:28:50.266Z,99924.13
2023-04-04T00:29:52.494Z,99914.31
2023-04-04T00:30:54.961Z,99923.38
2023-04-04T00:31:57.863Z,99922.88
2023-04-04T00:33:02.006Z,99918.69
2023-04-04T00:34:03.995Z,99927.72
2023-04-04T00:35:06.085Z,99919.75
2023-04-04T00:36:08.924Z,99918.72
2023-04-04T00:37:12.983Z,99917.47
2023-04-04T00:38:15.715Z,99916.87
2023-04-04T00:39:18.386Z,99919.59
2023-04-04T00:40:20.287Z,99930.81
2023-04-04T00:41:22.588Z,99934.28
2023-04-04T00:42:24.500Z,99932.34
2023-04-04T00:43:27.815Z,99938.81
2023-04-04T00:44:30.622Z,99939.53
2023-04-04T00:45:32.740Z,99934.63
2023-04-04T00:46:34.728Z,99929.16
2023-04-04T00:47:38.091Z,99935.81
2023-04-04T00:48:42.390Z,99932.50
2023-04-04T00:49:46.542Z,99930.09
2023-04-04T00:50:48.438Z,99932.31
2023-04-04T00:51:50.317Z,99932.59
2023-04-04T00:52:52.325Z,99931.00
2023-04-04T00:53:54.802Z,99920.22
2023-04-04T00:54:57.186Z,99927.53
2023-04-04T00:55:59.330Z,99913.22
2023-04-04T00:57:02.143Z,99917.81
2023-04-04T00:58:04.406Z,99912.28
2023-04-04T00:59:07.750Z,99900.97
2023-04-04T01:00:10.408Z,99899.12
2023-04-04T01:01:12.744Z,99902.53
2023-04-04T01:02:14.846Z,99899.44
2023-04-04T01:03:16.830Z,99899.25
2023-04-04T01:04:19.117Z,99905.53
2023-04-04T01:05:21.131Z,99900.41
2023-04-04T01:06:23.043Z,99890.31
2023-04-04T01:07:24.915Z,99898.47
2023-04-04T01:08:28.297Z,99889.31
2023-04-04T01:09:30.549Z,99893.84
2023-04-04T01:10:33.597Z,99882.62
2023-04-04T01:11:35.889Z,99888.13
2023-04-04T01:12:39.738Z,99884.91
2023-04-04T01:13:43.404Z,99883.91
2023-04-04T01:14:47.215Z,99873.63
2023-04-04T01:15:50.853Z,99874.69
2023-04-04T01:16:54.118Z,99866.00
2023-04-04T01:18:00.171Z,99867.00
2023-04-04T01:19:09.367Z,99872.19
2023-04-04T01:20:15.777Z,99865.97
2023-04-04T01:21:21.669Z,99869.16
2023-04-04T01:22:24.221Z,99864.00
2023-04-04T01:23:51.034Z,99863.53
2023-04-04T01:24:55.600Z,99864.00
2023-04-04T01:26:05.870Z,99858.56
2023-04-04T01:27:08.055Z,99858.59
2023-04-04T01:28:11.116Z,99854.22
2023-04-04T01:29:13.187Z,99860.69
2023-04-04T01:30:16.432Z,99849.91
2023-04-04T01:31:26.646Z,99854.09
2023-04-04T01:32:33.006Z,99843.78
2023-04-04T01:33:47.085Z,99848.13
2023-04-04T01:35:10.351Z,99852.19
2023-04-04T01:36:25.911Z,99848.28
2023-04-04T01:38:06.726Z,99841.31
2023-04-04T01:39:26.642Z,99832.66
2023-04-04T01:40:37.372Z,99836.69
2023-04-04T01:41:40.686Z,99833.16
2023-04-04T01:42:45.212Z,99832.53
2023-04-04T01:43:47.353Z,99830.88
2023-04-04T01:44:56.026Z,99835.09
2023-04-04T01:45:59.880Z,99829.09
2023-04-04T01:47:03.379Z,99824.28
2023-04-04T01:48:05.770Z,99832.19
2023-04-04T01:49:08.941Z,99817.37
2023-04-04T01:50:11.929Z,99821.56
2023-04-04T01:51:14.882Z,99818.03
2023-04-04T01:52:17.057Z,99813.47
2023-04-04T01:53:19.352Z,99815.09
2023-04-04T01:54:21.277Z,99817.37
2023-04-04T01:55:23.595Z,99807.03
2023-04-04T01:56:25.602Z,99812.22
2023-04-04T01:57:28.145Z,99816.25
2023-04-04T01:58:30.991Z,99804.94
2023-04-04T01:59:32.976Z,99809.28
2023-04-04T02:00:34.961Z,99809.91
2023-04-04T02:01:39.072Z,99803.16
2023-04-04T02:02:41.460Z,99804.94
2023-04-04T02:03:43.845Z,99805.13
2023-04-04T02:04:45.710Z,99800.38
2023-04-04T02:05:47.774Z,99805.41
2023-04-04T02:06:50.340Z,99798.97
2023-04-04T02:07:52.670Z,99792.84
2023-04-04T02:08:56.218Z,99793.00
2023-04-04T02:09:58.772Z,99801.56
2023-04-04T02:11:00.676Z,99789.78
2023-04-04T02:12:03.175Z,99793.19
2023-04-04T02:13:06.691Z,99786.88
2023-04-04T02:14:08.738Z,99784.12
2023-04-04T02:15:11.372Z,99784.12
2023-04-04T02:16:13.981Z,99787.66
2023-04-04T02:17:16.257Z,99781.72
2023-04-04T02:18:18.826Z,99781.84
2023-04-04T02:19:20.781Z,99783.47
2023-04-04T02:20:23.014Z,99777.03
2023-04-04T02:21:27.170Z,99780.06
2023-04-04T02:22:29.100Z,99778.63
2023-04-04T02:23:31.272Z,99772.47
2023-04-04T02:24:33.453Z,99777.34
2023-04-04T02:25:36.968Z,99770.88
2023-04-04T02:26:39.101Z,99776.69
2023-04-04T02:27:41.404Z,99781.72
2023-04-04T02:28:43.380Z,99775.38
2023-04-04T02:29:45.258Z,99768.62
2023-04-04T02:30:48.322Z,99770.56
2023-04-04T02:31:50.264Z,99771.69
2023-04-04T02:32:52.394Z,99765.66
2023-04-04T02:33:54.531Z,99770.69
2023-04-04T02:34:57.001Z,99776.38
2023-04-04T02:36:00.117Z,99764.78
2023-04-04T02:37:04.007Z,99771.53
2023-04-04T02:38:05.962Z,99768.62
2023-04-04T02:39:08.735Z,99770.09
2023-04-04T02:40:12.722Z,99766.84
2023-04-04T02:41:14.889Z,99766.69
2023-04-04T02:42:16.779Z,99769.25
2023-04-04T02:43:19.013Z,99769.91
2023-04-04T02:44:22.282Z,99772.34
2023-04-04T02:45:24.913Z,99766.72
2023-04-04T02:46:27.885Z,99772.81
2023-04-04T02:47:30.523Z,99776.03
2023-04-04T02:48:32.823Z,99771.84
2023-04-04T02:49:35.853Z,99772.47
2023-04-04T02:50:39.466Z,99775.56
2023-04-04T02:51:42.144Z,99771.34
2023-04-04T02:52:44.109Z,99774.78
2023-04-04T02:53:47.002Z,99772.47
2023-04-04T02:54:50.739Z,99775.03
2023-04-04T02:55:55.118Z,99780.53
2023-04-04T02:56:57.534Z,99777.31
2023-04-04T02:58:01.795Z,99785.06
2023-04-04T02:59:04.592Z,99785.69
2023-04-04T03:00:07.324Z,99782.66
2023-04-04T03:01:09.216Z,99785.22
2023-04-04T03:02:12.252Z,99773.47
2023-04-04T03:03:14.485Z,99777.31
2023-04-04T03:04:19.541Z,99786.16
2023-04-04T03:05:22.058Z,99779.56
2023-04-04T03:06:23.982Z,99780.47
2023-04-04T03:07:26.236Z,99783.06
2023-04-04T03:08:28.650Z,99784.69
2023-04-04T03:09:31.796Z,99787.28
2023-04-04T03:10:33.651Z,99784.38
2023-04-04T03:11:35.816Z,99792.12
2023-04-04T03:12:38.188Z,99785.34
2023-04-04T03:13:40.817Z,99785.22
2023-04-04T03:14:42.735Z,99786.03
2023-04-04T03:15:47.424Z,99791.53
2023-04-04T03:16:50.044Z,99794.09
2023-04-04T03:17:53.186Z,99785.84
2023-04-04T03:18:57.261Z,99787.34
2023-04-04T03:19:59.440Z,99785.09
2023-04-04T03:21:01.357Z,99788.34
2023-04-04T03:22:03.239Z,99786.22
2023-04-04T03:23:07.124Z,99795.16
2023-04-04T03:24:08.997Z,99788.63
2023-04-04T03:25:11.871Z,99797.94
2023-04-04T03:26:13.925Z,99792.16
2023-04-04T03:27:16.278Z,99791.44
2023-04-04T03:28:18.531Z,99791.16
2023-04-04T03:29:20.422Z,99789.25
2023-04-04T03:30:22.851Z,99794.34
2023-04-04T03:31:24.783Z,99798.16
2023-04-04T03:32:27.386Z,99801.09
2023-04-04T03:33:29.698Z,99793.75
2023-04-04T03:34:32.018Z,99802.75
2023-04-04T03:35:38.321Z,99806.66
2023-04-04T03:36:40.292Z,99801.63
2023-04-04T03:37:42.915Z,99805.00
2023-04-04T03:38:45.085Z,99805.00
2023-04-04T03:39:47.017Z,99807.25
2023-04-04T03:40:48.946Z,99807.25
2023-04-04T03:41:50.832Z,99809.84
2023-04-04T03:42:52.741Z,99806.66
2023-04-04T03:43:54.986Z,99801.50
2023-04-04T03:44:56.903Z,99809.56
2023-04-04T03:46:05.068Z,99806.00
2023-04-04T03:47:07.163Z,99806.56
2023-04-04T03:48:11.261Z,99800.16
2023-04-04T03:49:13.737Z,99801.16
2023-04-04T03:50:15.671Z,99802.09
2023-04-04T03:51:24.757Z,99795.16
2023-04-04T03:52:26.667Z,99797.13
2023-04-04T03:53:28.861Z,99798.72
2023-04-04T03:54:31.562Z,99798.22
2023-04-04T03:55:34.122Z,99805.56
2023-04-04T03:56:36.631Z,99799.34
2023-04-04T03:57:39.127Z,99800.47
2023-04-04T03:58:43.182Z,99792.53
2023-04-04T03:59:48.467Z,99796.84
2023-04-04T04:00:50.405Z,99790.41
2023-04-04T04:01:52.868Z,99790.28
2023-04-04T04:02:54.908Z,99786.13
2023-04-04T04:03:57.812Z,99781.13
2023-04-04T04:04:59.671Z,99779.84
2023-04-04T04:06:01.553Z,99778.53
2023-04-04T04:07:03.804Z,99786.94
2023-04-04T04:08:06.150Z,99781.91
2023-04-04T04:09:08.093Z,99781.59
2023-04-04T04:10:10.914Z,99782.44
2023-04-04T04:11:14.177Z,99784.25
2023-04-04T04:12:16.293Z,99787.91
2023-04-04T04:13:18.166Z,99789.66
2023-04-04T04:14:20.145Z,99784.22
2023-04-04T04:15:22.534Z,99777.91
2023-04-04T04:16:24.651Z,99782.72
2023-04-04T04:17:27.262Z,99785.81
2023-04-04T04:18:29.479Z,99789.06
2023-04-04T04:19:32.225Z,99788.59
2023-04-04T04:20:34.104Z,99786.31
2023-04-04T04:21:36.311Z,99782.75
2023-04-04T04:22:38.904Z,99787.72
2023-04-04T04:23:41.011Z,99790.69
2023-04-04T04:24:42.873Z,99786.88
2023-04-04T04:25:47.959Z,99784.44
2023-04-04T04:26:50.506Z,99780.87
2023-04-04T04:27:56.600Z,99782.47
2023-04-04T04:28:58.559Z,99784.25
2023-04-04T04:30:01.083Z,99783.12
2023-04-04T04:31:08.754Z,99777.03
2023-04-04T04:32:18.315Z,99778.47
2023-04-04T04:33:21.530Z,99777.03
2023-04-04T04:34:26.319Z,99768.59
2023-04-04T04:35:28.830Z,99777.03
2023-04-04T04:36:31.025Z,99777.03
2023-04-04T04:37:34.754Z,99773.28
2023-04-04T04:38:38.351Z,99776.69
2023-04-04T04:39:41.298Z,99772.78
2023-04-04T04:40:43.969Z,99769.56
2023-04-04T04:41:46.736Z,99772.47
2023-04-04T04:42:48.737Z,99771.19
2023-04-04T04:43:51.255Z,99767.31
2023-04-04T04:44:53.308Z,99771.22
2023-04-04T04:45:55.781Z,99776.69
2023-04-04T04:46:57.868Z,99773.66
2023-04-04T04:48:00.058Z,99772.53
2023-04-04T04:49:02.317Z,99771.41
2023-04-04T04:50:05.249Z,99780.53
2023-04-04T04:51:07.886Z,99770.53
2023-04-04T04:52:10.190Z,99776.50
2023-04-04T04:53:15.203Z,99772.53
2023-04-04T04:54:19.758Z,99770.41
2023-04-04T04:55:23.442Z,99777.03
2023-04-04T04:56:25.648Z,99773.47
2023-04-04T04:57:28.886Z,99771.22
2023-04-04T04:58:33.420Z,99776.56
2023-04-04T04:59:37.072Z,99774.44
2023-04-04T05:00:39.938Z,99777.66
2023-04-04T05:01:42.440Z,99772.19
2023-04-04T05:02:44.573Z,99779.28
2023-04-04T05:03:47.292Z,99776.06
2023-04-04T05:04:50.700Z,99781.06
2023-04-04T05:05:52.672Z,99778.47
2023-04-04T05:06:54.870Z,99771.87
2023-04-04T05:07:57.042Z,99780.06
2023-04-04T05:08:58.961Z,99781.53
2023-04-04T05:10:02.236Z,99782.31
2023-04-04T05:11:05.604Z,99779.59
2023-04-04T05:12:07.897Z,99778.28
2023-04-04T05:13:10.668Z,99778.31
2023-04-04T05:14:14.436Z,99782.03
2023-04-04T05:15:19.071Z,99783.00
2023-04-04T05:16:22.069Z,99790.09
2023-04-04T05:17:24.529Z,99787.37
2023-04-04T05:18:27.629Z,99788.41
2023-04-04T05:19:30.336Z,99786.00
2023-04-04T05:20:33.445Z,99784.41
2023-04-04T05:21:36.415Z,99772.44
2023-04-04T05:22:45.057Z,99787.59
2023-04-04T05:23:48.611Z,99783.00
2023-04-04T05:24:51.354Z,99786.97
2023-04-04T05:25:54.161Z,99794.09
2023-04-04T05:26:56.490Z,99792.12
2023-04-04T05:27:58.733Z,99792.12
2023-04-04T05:29:01.451Z,99795.87
2023-04-04T05:30:05.036Z,99791.84
2023-04-04T05:31:09.631Z,99797.63
2023-04-04T05:32:12.054Z,99790.53
2023-04-04T05:33:14.699Z,99804.25
2023-04-04T05:34:17.310Z,99798.44
2023-04-04T05:35:19.371Z,99803.13
2023-04-04T05:36:21.964Z,99797.34
2023-04-04T05:37:24.682Z,99799.28
2023-04-04T05:38:26.747Z,99806.06
2023-04-04T05:39:28.888Z,99802.78
2023-04-04T05:40:32.068Z,99800.25
2023-04-04T05:41:36.655Z,99800.56
2023-04-04T05:42:39.447Z,99796.66
2023-04-04T05:43:41.991Z,99793.28
2023-04-04T05:44:44.648Z,99793.78
2023-04-04T05:45:46.842Z,99793.88
2023-04-04T05:46:49.132Z,99792.47
2023-04-04T05:47:51.463Z,99793.16
2023-04-04T05:48:53.656Z,99797.94
2023-04-04T05:49:55.949Z,99799.25
2023-04-04T05:50:57.817Z,99803.94
2023-04-04T05:52:03.022Z,99800.84
2023-04-04T05:53:06.074Z,99797.13
2023-04-04T05:54:08.116Z,99795.31
2023-04-04T05:55:10.251Z,99796.28
2023-04-04T05:56:12.298Z,99803.75
2023-04-04T05:57:14.446Z,99797.88
2023-04-04T05:58:16.976Z,99795.87
2023-04-04T05:59:19.257Z,99795.53
2023-04-04T06:00:23.823Z,99796.53
2023-04-04T06:01:30.896Z,99794.25
2023-04-04T06:02:33.039Z,99786.72
2023-04-04T06:03:35.676Z,99789.16
2023-04-04T06:04:38.738Z,99786.50
2023-04-04T06:05:43.835Z,99783.94
2023-04-04T06:06:47.131Z,99791.97
2023-04-04T06:07:49.088Z,99788.91
2023-04-04T06:08:53.787Z,99792.63
2023-04-04T06:09:56.441Z,99797.41
2023-04-04T06:10:58.429Z,99796.16
2023-04-04T06:12:00.931Z,99792.78
2023-04-04T06:13:02.793Z,99800.06
2023-04-04T06:14:05.644Z,99807.06
2023-04-04T06:15:08.258Z,99800.22
2023-04-04T06:16:11.042Z,99800.41
2023-04-04T06:17:13.318Z,99799.31
2023-04-04T06:18:17.426Z,99811.66
2023-04-04T06:19:20.760Z,99798.59
2023-04-04T06:20:24.206Z,99812.81
2023-04-04T06:21:27.128Z,99817.22
2023-04-04T06:22:29.717Z,99814.03
2023-04-04T06:23:31.726Z,99812.13
2023-04-04T06:24:36.141Z,99816.81
2023-04-04T06:25:39.085Z,99809.38
2023-04-04T06:26:41.013Z,99806.31
2023-04-04T06:27:43.573Z,99803.56
2023-04-04T06:28:48.422Z,99788.91
2023-04-04T06:29:50.827Z,99788.28
2023-04-04T06:30:53.144Z,99766.88
2023-04-04T06:31:59.555Z,99765.28
2023-04-04T06:33:06.931Z,99765.06
2023-04-04T06:34:10.425Z,99758.09
2023-04-04T06:35:13.022Z,99756.13
2023-04-04T06:36:16.112Z,99760.44
2023-04-04T06:37:18.065Z,99761.31
2023-04-04T06:38:21.707Z,99772.19
2023-04-04T06:39:24.410Z,99775.06
2023-04-04T06:40:26.870Z,99778.03
2023-04-04T06:41:29.145Z,99761.34
2023-04-04T06:42:31.219Z,99763.13
2023-04-04T06:43:36.915Z,99757.47
2023-04-04T06:44:38.950Z,99748.84
2023-04-04T06:45:41.090Z,99745.06
2023-04-04T06:46:42.988Z,99752.97
2023-04-04T06:47:47.091Z,99748.81
2023-04-04T06:48:49.405Z,99752.22
2023-04-04T06:49:52.811Z,99748.91
2023-04-04T06:50:54.752Z,99756.25
2023-04-04T06:51:57.078Z,99751.78
2023-04-04T06:53:01.255Z,99750.81
2023-04-04T06:54:04.688Z,99756.09
2023-04-04T06:55:07.467Z,99750.00
2023-04-04T06:56:09.590Z,99761.28
2023-04-04T06:57:11.520Z,99759.00
2023-04-04T06:58:13.440Z,99757.00
2023-04-04T06:59:15.658Z,99753.22
2023-04-04T07:00:18.134Z,99760.81
2023-04-04T07:01:20.097Z,99759.66
2023-04-04T07:02:22.136Z,99753.03
2023-04-04T07:03:24.479Z,99762.31
2023-04-04T07:04:27.109Z,99761.06
2023-04-04T07:05:29.160Z,99752.69
2023-04-04T07:06:31.447Z,99754.00
2023-04-04T07:07:33.431Z,99761.34
2023-04-04T07:08:36.908Z,99756.87
2023-04-04T07:09:39.383Z,99764.81
2023-04-04T07:10:41.627Z,99768.66
2023-04-04T07:11:43.527Z,99772.78
2023-04-04T07:12:45.507Z,99768.53
2023-04-04T07:13:47.451Z,99778.97
2023-04-04T07:14:49.642Z,99775.78
2023-04-04T07:15:51.844Z,99774.03
2023-04-04T07:16:53.898Z,99781.81
2023-04-04T07:17:55.831Z,99778.78
2023-04-04T07:18:57.819Z,99774.66
2023-04-04T07:20:01.753Z,99775.69
2023-04-04T07:21:04.935Z,99781.22
2023-04-04T07:22:07.016Z,99784.19
2023-04-04T07:23:08.898Z,99780.59
2023-04-04T07:24:10.843Z,99780.37
2023-04-04T07:25:13.549Z,99773.44
2023-04-04T07:26:15.575Z,99782.81
2023-04-04T07:27:17.537Z,99786.78
2023-04-04T07:28:19.362Z,99784.31
2023-04-04T07:29:22.075Z,99790.63
2023-04-04T07:30:27.745Z,99784.50
2023-04-04T07:31:29.735Z,99780.28
2023-04-04T07:32:31.983Z,99784.56
2023-04-04T07:33:33.964Z,99776.00
2023-04-04T07:34:35.792Z,99771.28
2023-04-04T07:35:38.136Z,99767.53
2023-04-04T07:36:40.008Z,99769.06
2023-04-04T07:37:41.894Z,99771.06
2023-04-04T07:38:43.976Z,99768.94
2023-04-04T07:39:46.808Z,99766.66
2023-04-04T07:40:50.198Z,99771.34
2023-04-04T07:41:52.413Z,99792.81
2023-04-04T07:42:54.691Z,99783.28
2023-04-04T07:43:56.585Z,99781.47
2023-04-04T07:44:58.443Z,99785.81
2023-04-04T07:46:00.753Z,99788.09
2023-04-04T07:47:09.920Z,99791.81
2023-04-04T07:48:12.325Z,99786.81
2023-04-04T07:49:14.189Z,99782.66
2023-04-04T07:50:16.920Z,99785.28
2023-04-04T07:51:23.913Z,99785.88
2023-04-04T07:52:25.865Z,99787.19
2023-04-04T07:53:28.386Z,99782.09
2023-04-04T07:54:30.475Z,99784.53
2023-04-04T07:55:32.323Z,99791.97
2023-04-04T07:56:34.451Z,99798.41
2023-04-04T07:57:39.982Z,99787.47
2023-04-04T07:58:41.826Z,99791.09
2023-04-04T07:59:44.606Z,99789.91
2023-04-04T08:00:46.897Z,99793.59
2023-04-04T08:01:49.253Z,99784.75
2023-04-04T08:02:55.889Z,99787.50
2023-04-04T08:03:57.965Z,99783.84
2023-04-04T08:05:00.148Z,99781.47
2023-04-04T08:06:02.080Z,99789.09
2023-04-04T08:07:04.281Z,99784.16
2023-04-04T08:08:06.418Z,99788.75
2023-04-04T08:09:08.712Z,99783.81
2023-04-04T08:10:11.322Z,99787.03
2023-04-04T08:11:13.626Z,99787.03
2023-04-04T08:12:15.849Z,99784.28
2023-04-04T08:13:17.809Z,99785.56
2023-04-04T08:14:19.815Z,99795.56
2023-04-04T08:15:21.944Z,99789.22
2023-04-04T08:16:23.916Z,99782.44
2023-04-04T08:17:26.574Z,99784.78
2023-04-04T08:18:28.465Z,99794.81
2023-04-04T08:19:30.760Z,99788.37
2023-04-04T08:20:32.929Z,99789.56
2023-04-04T08:21:34.789Z,99787.56
2023-04-04T08:22:37.144Z,99794.44
2023-04-04T08:23:39.064Z,99799.00
2023-04-04T08:24:40.928Z,99806.66
2023-04-04T08:25:44.999Z,99791.81
2023-04-04T08:26:51.790Z,99802.06
2023-04-04T08:28:05.445Z,99802.84
2023-04-04T08:29:07.707Z,99806.47
2023-04-04T08:30:10.209Z,99797.91
2023-04-04T08:31:12.494Z,99801.25
2023-04-04T08:32:15.321Z,99802.50
2023-04-04T08:33:17.799Z,99797.69
2023-04-04T08:34:20.751Z,99792.50
2023-04-04T08:35:22.776Z,99794.84
2023-04-04T08:36:24.721Z,99788.44
2023-04-04T08:37:26.782Z,99793.84
2023-04-04T08:38:29.073Z,99792.38
2023-04-04T08:39:31.647Z,99791.62
2023-04-04T08:40:34.906Z,99786.03
2023-04-04T08:41:37.228Z,99786.25
2023-04-04T08:42:41.606Z,99794.87
2023-04-04T08:43:46.502Z,99788.47
2023-04-04T08:44:52.854Z,99794.87
2023-04-04T08:45:55.346Z,99798.31
2023-04-04T08:47:00.212Z,99790.50
2023-04-04T08:48:05.117Z,99785.31
2023-04-04T08:49:07.769Z,99786.84
2023-04-04T08:50:09.800Z,99774.63
2023-04-04T08:51:14.248Z,99772.81
2023-04-04T08:52:22.925Z,99771.66
2023-04-04T08:53:26.653Z,99769.03
2023-04-04T08:54:31.112Z,99762.84
2023-04-04T08:55:32.992Z,99769.62
2023-04-04T08:56:35.949Z,99768.44
2023-04-04T08:57:38.306Z,99764.44
2023-04-04T08:58:40.582Z,99767.44
2023-04-04T08:59:43.374Z,99770.44
2023-04-04T09:00:46.072Z,99771.84
2023-04-04T09:01:48.150Z,99761.59
2023-04-04T09:03:00.127Z,99753.59
2023-04-04T09:04:03.183Z,99754.81
2023-04-04T09:05:08.456Z,99760.00
2023-04-04T09:06:10.655Z,99755.19
2023-04-04T09:07:14.731Z,99755.00
2023-04-04T09:08:18.505Z,99754.41
2023-04-04T09:09:21.925Z,99756.41
2023-04-04T09:10:24.135Z,99768.03
2023-04-04T09:11:27.925Z,99758.00
2023-04-04T09:12:32.633Z,99759.22
2023-04-04T09:13:34.545Z,99759.63
2023-04-04T09:14:39.254Z,99756.81
2023-04-04T09:15:45.963Z,99751.19
2023-04-04T09:16:47.923Z,99744.94
2023-04-04T09:17:49.834Z,99746.56
2023-04-04T09:18:52.940Z,99755.19
2023-04-04T09:19:54.774Z,99746.12
2023-04-04T09:20:56.971Z,99756.59
2023-04-04T09:21:58.808Z,99746.56
2023-04-04T09:23:01.229Z,99748.56
2023-04-04T09:24:04.241Z,99753.12
2023-04-04T09:25:08.428Z,99746.28
2023-04-04T09:26:12.354Z,99751.94
2023-04-04T09:27:15.823Z,99749.16
2023-04-04T09:28:18.357Z,99751.19
2023-04-04T09:29:23.345Z,99749.59
2023-04-04T09:30:25.608Z,99749.78
2023-04-04T09:31:28.845Z,99744.56
2023-04-04T09:32:30.744Z,99741.72
2023-04-04T09:33:34.398Z,99759.81
2023-04-04T09:34:37.778Z,99753.78
2023-04-04T09:35:43.906Z,99748.19
2023-04-04T09:36:47.022Z,99747.56
2023-04-04T09:37:49.088Z,99738.34
2023-04-04T09:38:53.787Z,99747.16
2023-04-04T09:39:55.829Z,99754.41
2023-04-04T09:40:58.328Z,99753.59
2023-04-04T09:42:01.625Z,99751.59
2023-04-04T09:43:07.129Z,99750.00
2023-04-04T09:44:12.211Z,99744.56
2023-04-04T09:45:19.620Z,99739.16
2023-04-04T09:46:32.236Z,99741.94
2023-04-04T09:47:41.641Z,99745.56
2023-04-04T09:48:50.665Z,99735.88
2023-04-04T09:49:52.741Z,99735.50
2023-04-04T09:50:54.935Z,99730.09
2023-04-04T09:51:56.773Z,99734.75
2023-04-04T09:53:00.686Z,99745.16
2023-04-04T09:54:02.795Z,99745.12
2023-04-04T09:55:06.642Z,99745.47
2023-04-04T09:56:09.147Z,99739.88
2023-04-04T09:57:11.576Z,99739.91
2023-04-04T09:58:18.571Z,99743.09
2023-04-04T09:59:20.684Z,99753.47
2023-04-04T10:00:23.257Z,99752.69
2023-04-04T10:01:25.719Z,99738.72
2023-04-04T10:02:31.494Z,99744.47
2023-04-04T10:03:33.525Z,99745.28
2023-04-04T10:04:35.840Z,99747.44
2023-04-04T10:05:38.616Z,99739.56
2023-04-04T10:06:44.711Z,99739.59
2023-04-04T10:07:47.392Z,99752.53
2023-04-04T10:08:50.065Z,99739.16
2023-04-04T10:09:52.765Z,99740.41
2023-04-04T10:12:11.290Z,99746.12
2023-04-04T10:13:13.434Z,99745.78
2023-04-04T10:14:15.597Z,99727.44
2023-04-04T10:15:17.531Z,99727.09
2023-04-04T10:16:19.987Z,99739.22
2023-04-04T10:17:23.491Z,99738.03
2023-04-04T10:18:33.249Z,99727.03
2023-04-04T10:19:37.471Z,99724.94
2023-04-04T10:20:39.836Z,99735.41
2023-04-04T10:21:42.395Z,99732.75
2023-04-04T10:22:48.523Z,99724.03
2023-04-04T10:23:53.047Z,99727.88
2023-04-04T10:24:55.127Z,99713.72
2023-04-04T10:25:58.706Z,99720.44
2023-04-04T10:27:00.694Z,99708.41
2023-04-04T10:28:02.894Z,99719.31
2023-04-04T10:29:05.880Z,99720.94
2023-04-04T10:30:08.897Z,99702.91
2023-04-04T10:31:33.532Z,99713.25
2023-04-04T10:32:56.799Z,99715.34
2023-04-04T10:34:24.702Z,99717.69
2023-04-04T10:35:28.390Z,99713.50
2023-04-04T10:36:44.516Z,99717.31
2023-04-04T10:37:56.628Z,99711.84
2023-04-04T10:39:09.058Z,99719.91
2023-04-04T10:40:15.221Z,99721.06
2023-04-04T10:41:18.375Z,99718.06
2023-04-04T10:42:20.207Z,99718.25
2023-04-04T10:43:26.848Z,99716.00
2023-04-04T10:44:39.555Z,99716.59
2023-04-04T10:45:42.671Z,99720.09
2023-04-04T10:46:48.382Z,99719.69
2023-04-04T10:47:50.893Z,99720.72
2023-04-04T10:48:52.785Z,99723.47
2023-04-04T10:49:56.167Z,99726.97
2023-04-04T10:50:59.423Z,99712.78
2023-04-04T10:52:01.924Z,99722.31
2023-04-04T10:53:04.645Z,99723.47
2023-04-04T10:54:07.662Z,99718.56
2023-04-04T10:55:13.695Z,99722.12
2023-04-04T10:56:17.647Z,99714.53
2023-04-04T10:57:20.154Z,99726.47
2023-04-04T10:58:22.799Z,99724.50
2023-04-04T10:59:26.160Z,99728.28
2023-04-04T11:00:28.875Z,99721.03
2023-04-04T11:01:48.529Z,99714.72
2023-04-04T11:02:55.100Z,99710.09
2023-04-04T11:04:21.239Z,99706.25
2023-04-04T11:05:51.046Z,99719.84
2023-04-04T11:07:19.582Z,99725.19
2023-04-04T11:08:26.983Z,99732.91
2023-04-04T11:09:55.445Z,99733.81
2023-04-04T11:10:57.865Z,99725.06
2023-04-04T11:12:10.074Z,99728.97
2023-04-04T11:13:26.154Z,99720.06
2023-04-04T11:14:31.117Z,99718.97
2023-04-04T11:16:11.290Z,99715.62
2023-04-04T11:17:14.759Z,99717.44
2023-04-04T11:18:31.591Z,99711.50
2023-04-04T11:19:34.870Z,99708.09
2023-04-04T11:20:38.903Z,99710.53
2023-04-04T11:21:41.100Z,99708.62
2023-04-04T11:22:43.880Z,99709.75
2023-04-04T11:23:51.428Z,99709.31
2023-04-04T11:25:00.769Z,99710.25
2023-04-04T11:26:03.590Z,99713.34
2023-04-04T11:27:07.965Z,99713.81
2023-04-04T11:28:17.056Z,99710.84
2023-04-04T11:29:42.128Z,99709.41
2023-04-04T11:30:48.409Z,99712.34
2023-04-04T11:31:51.346Z,99710.91
2023-04-04T11:33:06.634Z,99711.09
2023-04-04T11:34:15.121Z,99697.03
2023-04-04T11:35:17.576Z,99699.97
2023-04-04T11:36:37.703Z,99696.34
2023-04-04T11:37:52.694Z,99695.25
2023-04-04T11:38:58.333Z,99696.84
2023-04-04T11:40:12.149Z,99698.91
2023-04-04T11:41:14.822Z,99689.66
2023-04-04T11:42:16.748Z,99697.19
2023-04-04T11:43:20.434Z,99696.72
2023-04-04T11:44:23.907Z,99694.91
2023-04-04T11:45:27.151Z,99691.62
2023-04-04T11:46:29.729Z,99686.66
2023-04-04T11:47:32.054Z,99692.84
2023-04-04T11:48:34.023Z,99689.78
2023-04-04T11:49:41.233Z,99688.37
2023-04-04T11:50:45.939Z,99687.25
2023-04-04T11:51:48.015Z,99680.53
2023-04-04T11:52:53.796Z,99686.19
2023-04-04T11:53:55.915Z,99685.41
2023-04-04T11:54:57.875Z,99680.72
2023-04-04T11:56:00.346Z,99678.16
2023-04-04T11:57:03.611Z,99673.47
2023-04-04T11:58:12.808Z,99657.41
2023-04-04T11:59:20.269Z,99672.41
2023-04-04T12:00:32.904Z,99675.16
2023-04-04T12:01:35.697Z,99674.72
2023-04-04T12:02:39.177Z,99682.56
2023-04-04T12:03:41.633Z,99674.19
2023-04-04T12:04:47.184Z,99681.66
2023-04-04T12:05:49.469Z,99677.19
2023-04-04T12:06:53.913Z,99676.09
2023-04-04T12:07:55.808Z,99676.44
2023-04-04T12:08:57.725Z,99667.69
2023-04-04T12:09:59.603Z,99667.63
2023-04-04T12:11:05.133Z,99666.53
2023-04-04T12:12:07.845Z,99666.97
2023-04-04T12:13:10.629Z,99666.75
2023-04-04T12:14:17.482Z,99658.34
2023-04-04T12:15:19.390Z,99665.69
2023-04-04T12:16:21.322Z,99660.38
2023-04-04T12:17:23.897Z,99663.34
2023-04-04T12:18:26.414Z,99651.66
2023-04-04T12:19:29.603Z,99660.22
2023-04-04T12:20:31.576Z,99656.59
2023-04-04T12:21:33.600Z,99666.63
2023-04-04T12:22:36.182Z,99661.03
2023-04-04T12:23:38.064Z,99664.63
2023-04-04T12:24:39.995Z,99649.97
2023-04-04T12:25:44.862Z,99663.59
2023-04-04T12:26:49.261Z,99659.91
2023-04-04T12:27:52.458Z,99650.91
2023-04-04T12:28:57.103Z,99648.09
2023-04-04T12:30:00.751Z,99654.41
2023-04-04T12:31:05.699Z,99654.75